createdAt,value
2019-05-09T00:00:04.159Z,19.73
2019-05-09T00:02:38.656Z,19.27
2019-05-09T00:05:05.505Z,20.93
2019-05-09T00:07:33.642Z,18.93
2019-05-09T00:09:59.496Z,18.97
2019-05-09T00:12:25.520Z,17.27
2019-05-09T00:14:53.828Z,18.47
2019-05-09T00:17:19.667Z,16.50
2019-05-09T00:19:45.751Z,18.10
2019-05-09T00:22:13.730Z,17.13
2019-05-09T00:24:39.699Z,15.20
2019-05-09T00:27:05.721Z,18.93
2019-05-09T00:29:53.213Z,16.47
2019-05-09T00:32:30.120Z,14.63
2019-05-09T00:35:04.126Z,16.43
2019-05-09T00:37:48.775Z,11.77
2019-05-09T00:40:14.844Z,10.90
2019-05-09T00:42:41.014Z,10.90
2019-05-09T00:45:08.946Z,11.90
2019-05-09T00:47:35.059Z,10.57
2019-05-09T00:50:01.297Z,10.57
2019-05-09T00:52:27.300Z,10.37
2019-05-09T00:54:57.083Z,10.80
2019-05-09T00:57:38.402Z,9.40
2019-05-09T01:00:06.560Z,8.23
2019-05-09T01:02:34.012Z,8.73
2019-05-09T01:05:04.189Z,8.63
2019-05-09T01:07:30.904Z,8.67
2019-05-09T01:09:56.924Z,9.23
2019-05-09T01:12:23.586Z,6.50
2019-05-09T01:14:50.187Z,8.30
2019-05-09T01:17:18.494Z,9.00
2019-05-09T01:19:47.053Z,9.07
2019-05-09T01:22:23.633Z,9.27
2019-05-09T01:24:50.934Z,7.73
2019-05-09T01:27:17.307Z,8.80
2019-05-09T01:29:49.479Z,9.83
2019-05-09T01:32:34.409Z,8.20
2019-05-09T01:35:03.860Z,9.77
2019-05-09T01:37:34.028Z,6.10
2019-05-09T01:40:08.409Z,10.00
2019-05-09T01:42:36.725Z,6.83
2019-05-09T01:45:04.946Z,8.63
2019-05-09T01:47:30.959Z,7.83
2019-05-09T01:49:57.163Z,6.77
2019-05-09T01:52:23.261Z,7.50
2019-05-09T01:54:49.316Z,7.37
2019-05-09T01:57:15.391Z,49.40
2019-05-09T01:59:41.403Z,18.50
2019-05-09T02:02:08.921Z,7.77
2019-05-09T02:04:35.184Z,8.93
2019-05-09T02:07:04.194Z,10.97
2019-05-09T02:09:30.786Z,10.07
2019-05-09T02:11:56.927Z,10.90
2019-05-09T02:14:31.289Z,12.13
2019-05-09T02:17:00.577Z,10.77
2019-05-09T02:19:33.166Z,9.30
2019-05-09T02:21:59.262Z,9.20
2019-05-09T02:24:25.313Z,10.03
2019-05-09T02:26:53.327Z,10.77
2019-05-09T02:29:19.627Z,12.53
2019-05-09T02:31:47.647Z,8.80
2019-05-09T02:34:18.514Z,8.37
2019-05-09T02:36:49.613Z,10.20
2019-05-09T02:39:20.031Z,10.10
2019-05-09T02:42:04.917Z,18.10
2019-05-09T02:44:21.378Z,12.83
2019-05-09T02:46:49.719Z,10.50
2019-05-09T02:49:15.734Z,11.83
2019-05-09T02:51:41.864Z,12.50
2019-05-09T02:54:09.767Z,13.50
2019-05-09T02:56:38.466Z,15.63
2019-05-09T02:59:09.670Z,14.50
2019-05-09T03:01:49.477Z,16.83
2019-05-09T03:04:18.679Z,18.03
2019-05-09T03:06:44.404Z,18.60
2019-05-09T03:09:10.698Z,17.93
2019-05-09T03:11:38.734Z,15.93
2019-05-09T03:14:04.665Z,19.60
2019-05-09T03:16:31.023Z,21.37
2019-05-09T03:18:58.592Z,21.20
2019-05-09T03:21:29.879Z,20.10
2019-05-09T03:23:54.595Z,18.57
2019-05-09T03:26:25.091Z,20.60
2019-05-09T03:28:59.126Z,27.37
2019-05-09T03:31:29.805Z,18.87
2019-05-09T03:33:59.497Z,20.33
2019-05-09T03:36:24.503Z,21.80
2019-05-09T03:38:50.515Z,20.27
2019-05-09T03:41:17.711Z,19.10
2019-05-09T03:43:44.037Z,20.13
2019-05-09T03:46:11.944Z,20.43
2019-05-09T03:48:43.291Z,25.20
2019-05-09T03:51:09.299Z,19.10
2019-05-09T03:53:35.309Z,19.80
2019-05-09T03:56:03.243Z,22.93
2019-05-09T03:58:29.255Z,21.20
2019-05-09T04:00:55.277Z,18.30
2019-05-09T04:03:21.497Z,22.57
2019-05-09T04:05:56.701Z,23.77
2019-05-09T04:08:17.931Z,26.57
2019-05-09T04:10:47.004Z,64.97
2019-05-09T04:13:13.419Z,93.07
2019-05-09T04:15:39.439Z,29.10
2019-05-09T04:18:05.549Z,25.07
2019-05-09T04:20:31.562Z,24.03
2019-05-09T04:22:59.461Z,23.47
2019-05-09T04:25:27.493Z,26.50
2019-05-09T04:27:53.672Z,26.47
2019-05-09T04:30:19.687Z,26.73
2019-05-09T04:32:47.659Z,24.43
2019-05-09T04:35:13.655Z,27.70
2019-05-09T04:37:39.668Z,38.23
2019-05-09T04:40:08.082Z,27.67
2019-05-09T04:42:34.983Z,27.40
2019-05-09T04:45:07.089Z,28.73
2019-05-09T04:47:41.374Z,25.27
2019-05-09T04:50:04.304Z,27.47
2019-05-09T04:52:30.526Z,24.03
2019-05-09T04:55:07.747Z,21.07
2019-05-09T04:57:42.280Z,24.57
2019-05-09T05:00:24.835Z,25.87
2019-05-09T05:02:52.070Z,34.27
2019-05-09T05:05:18.190Z,44.70
2019-05-09T05:07:44.315Z,29.20
2019-05-09T05:10:12.641Z,27.23
2019-05-09T05:12:39.797Z,27.37
2019-05-09T05:15:07.998Z,26.90
2019-05-09T05:17:33.952Z,26.67
2019-05-09T05:20:00.980Z,26.33
2019-05-09T05:22:29.570Z,28.77
2019-05-09T05:25:00.098Z,30.50
2019-05-09T05:27:27.855Z,35.53
2019-05-09T05:29:54.239Z,33.73
2019-05-09T05:32:31.064Z,31.70
2019-05-09T05:34:58.999Z,33.80
2019-05-09T05:37:25.335Z,41.60
2019-05-09T05:39:51.347Z,40.80
2019-05-09T05:42:17.675Z,39.40
2019-05-09T05:44:43.903Z,39.43
2019-05-09T05:47:11.834Z,34.83
2019-05-09T05:49:38.525Z,44.60
2019-05-09T05:52:04.747Z,36.63
2019-05-09T05:54:30.774Z,41.73
2019-05-09T05:56:57.819Z,45.70
2019-05-09T05:59:24.103Z,35.50
2019-05-09T06:01:50.129Z,47.60
2019-05-09T06:04:18.477Z,40.37
2019-05-09T06:06:44.163Z,43.60
2019-05-09T06:09:10.221Z,45.63
2019-05-09T06:11:38.440Z,39.73
2019-05-09T06:14:10.954Z,45.90
2019-05-09T06:16:32.558Z,42.07
2019-05-09T06:18:59.900Z,38.17
2019-05-09T06:21:28.100Z,47.20
2019-05-09T06:23:53.833Z,55.30
2019-05-09T06:26:19.868Z,43.77
2019-05-09T06:28:48.004Z,38.37
2019-05-09T06:31:13.850Z,40.17
2019-05-09T06:33:46.095Z,38.77
2019-05-09T06:36:08.461Z,38.63
2019-05-09T06:38:34.855Z,75.50
2019-05-09T06:41:01.015Z,43.43
2019-05-09T06:43:29.153Z,41.27
2019-05-09T06:46:01.574Z,47.83
2019-05-09T06:48:28.403Z,37.67
2019-05-09T06:50:54.565Z,45.23
2019-05-09T06:53:20.739Z,37.97
2019-05-09T06:55:47.586Z,40.97
2019-05-09T06:58:34.091Z,45.53
2019-05-09T07:01:19.879Z,43.60
2019-05-09T07:04:04.486Z,41.40
2019-05-09T07:06:48.434Z,40.03
2019-05-09T07:09:25.051Z,41.47
2019-05-09T07:11:51.089Z,41.17
2019-05-09T07:14:33.896Z,60.20
2019-05-09T07:16:58.704Z,35.03
2019-05-09T07:19:24.726Z,36.70
2019-05-09T07:22:05.479Z,37.87
2019-05-09T07:24:37.785Z,35.20
2019-05-09T07:27:11.756Z,37.37
2019-05-09T07:29:37.797Z,35.53
2019-05-09T07:32:13.891Z,41.37
2019-05-09T07:34:51.111Z,38.73
2019-05-09T07:37:18.595Z,37.63
2019-05-09T07:39:49.634Z,40.73
2019-05-09T07:42:17.943Z,41.33
2019-05-09T07:44:48.314Z,44.87
2019-05-09T07:47:11.645Z,46.63
2019-05-09T07:49:37.815Z,46.87
2019-05-09T07:52:09.418Z,47.03
2019-05-09T07:54:33.031Z,53.47
2019-05-09T07:56:59.031Z,44.83
2019-05-09T07:59:27.283Z,45.70
2019-05-09T08:01:52.994Z,44.33
2019-05-09T08:04:19.051Z,43.43
2019-05-09T08:06:45.134Z,40.37
2019-05-09T08:09:11.220Z,37.53
2019-05-09T08:11:37.705Z,39.60
2019-05-09T08:14:04.327Z,41.13
2019-05-09T08:16:30.734Z,39.27
2019-05-09T08:18:57.759Z,35.70
2019-05-09T08:21:24.255Z,38.10
2019-05-09T08:23:50.280Z,42.13
2019-05-09T08:26:18.672Z,42.67
2019-05-09T08:28:44.492Z,39.00
2019-05-09T08:31:10.560Z,38.77
2019-05-09T08:33:38.064Z,44.80
2019-05-09T08:36:04.505Z,43.17
2019-05-09T08:38:30.592Z,39.87
2019-05-09T08:41:08.774Z,43.00
2019-05-09T08:43:37.610Z,40.60
2019-05-09T08:46:03.593Z,36.67
2019-05-09T08:48:29.650Z,37.40
2019-05-09T08:50:58.350Z,38.93
2019-05-09T08:53:24.734Z,35.33
2019-05-09T08:55:51.188Z,33.40
2019-05-09T08:58:19.667Z,33.17
2019-05-09T09:00:45.444Z,34.60
2019-05-09T09:03:19.596Z,31.40
2019-05-09T09:05:45.610Z,31.50
2019-05-09T09:08:11.620Z,32.10
2019-05-09T09:10:38.692Z,33.37
2019-05-09T09:13:04.920Z,32.03
2019-05-09T09:16:02.262Z,33.50
2019-05-09T09:18:04.643Z,29.33
2019-05-09T09:20:30.944Z,50.80
2019-05-09T09:22:58.235Z,30.90
2019-05-09T09:25:24.679Z,27.90
2019-05-09T09:27:51.224Z,28.47
2019-05-09T09:30:24.116Z,28.20
2019-05-09T09:32:47.742Z,27.63
2019-05-09T09:35:13.161Z,27.13
2019-05-09T09:37:48.298Z,27.83
2019-05-09T09:40:08.626Z,28.40
2019-05-09T09:42:35.126Z,25.20
2019-05-09T09:45:01.252Z,24.90
2019-05-09T09:47:28.609Z,27.50
2019-05-09T09:49:55.160Z,30.13
2019-05-09T09:52:21.435Z,23.83
2019-05-09T09:54:48.201Z,22.40
2019-05-09T09:57:14.928Z,22.60
2019-05-09T09:59:48.381Z,22.50
2019-05-09T10:02:17.435Z,23.47
2019-05-09T10:04:54.126Z,28.13
2019-05-09T10:07:20.319Z,22.67
2019-05-09T10:09:48.004Z,18.63
2019-05-09T10:12:14.266Z,19.23
2019-05-09T10:14:42.587Z,20.83
2019-05-09T10:17:32.485Z,19.60
2019-05-09T10:20:00.771Z,15.67
2019-05-09T10:22:34.324Z,18.20
2019-05-09T10:25:00.453Z,17.57
2019-05-09T10:27:28.385Z,12.47
2019-05-09T10:29:54.616Z,53.77
2019-05-09T10:32:20.631Z,20.70
2019-05-09T10:34:48.820Z,15.70
2019-05-09T10:37:14.708Z,16.90
2019-05-09T10:39:40.743Z,13.00
2019-05-09T10:42:28.594Z,16.87
2019-05-09T10:45:08.395Z,13.10
2019-05-09T10:47:37.777Z,13.27
2019-05-09T10:50:05.667Z,13.93
2019-05-09T10:52:31.684Z,13.43
2019-05-09T10:55:04.687Z,10.33
2019-05-09T10:57:32.374Z,7.67
2019-05-09T10:59:58.655Z,6.60
2019-05-09T11:02:25.111Z,6.87
2019-05-09T11:04:51.210Z,6.93
2019-05-09T11:07:18.199Z,8.30
2019-05-09T11:09:44.465Z,4.73
2019-05-09T11:12:10.511Z,8.37
2019-05-09T11:14:37.662Z,6.13
2019-05-09T11:17:10.647Z,6.30
2019-05-09T11:19:31.993Z,8.97
2019-05-09T11:21:59.917Z,8.27
2019-05-09T11:24:41.530Z,7.53
2019-05-09T11:26:54.262Z,7.27
2019-05-09T11:29:20.281Z,12.67
2019-05-09T11:31:47.753Z,6.30
2019-05-09T11:34:14.028Z,10.40
2019-05-09T11:36:40.039Z,5.83
2019-05-09T11:39:10.620Z,8.83
2019-05-09T11:41:38.160Z,11.83
2019-05-09T11:44:03.382Z,9.97
2019-05-09T11:46:29.487Z,6.60
2019-05-09T11:48:55.556Z,8.33
2019-05-09T11:51:22.893Z,7.37
2019-05-09T11:53:49.091Z,12.00
2019-05-09T11:56:15.116Z,6.93
2019-05-09T11:58:42.069Z,11.40
2019-05-09T12:01:08.422Z,6.57
2019-05-09T12:03:34.488Z,7.13
2019-05-09T12:06:00.495Z,6.83
2019-05-09T12:08:26.556Z,8.90
2019-05-09T12:10:52.571Z,7.00
2019-05-09T12:13:18.924Z,6.13
2019-05-09T12:15:44.979Z,6.00
2019-05-09T12:18:11.790Z,3.63
2019-05-09T12:20:37.916Z,2.92
2019-05-09T12:23:04.263Z,6.22
2019-05-09T12:25:30.288Z,3.30
2019-05-09T12:27:58.485Z,3.30
2019-05-09T12:30:24.553Z,3.60
2019-05-09T12:32:54.492Z,3.33
2019-05-09T12:35:20.528Z,11.03
2019-05-09T12:37:48.385Z,4.40
2019-05-09T12:40:14.549Z,6.47
2019-05-09T12:42:40.588Z,2.67
2019-05-09T12:45:08.325Z,5.67
2019-05-09T12:47:34.613Z,4.13
2019-05-09T12:50:02.941Z,4.03
2019-05-09T12:52:29.188Z,4.40
2019-05-09T12:54:55.204Z,2.58
2019-05-09T12:57:21.225Z,4.03
2019-05-09T12:59:51.749Z,7.55
2019-05-09T13:02:17.631Z,3.62
2019-05-09T13:04:43.406Z,3.33
2019-05-09T13:07:09.891Z,3.77
2019-05-09T13:09:35.948Z,2.37
2019-05-09T13:12:02.128Z,5.90
2019-05-09T13:14:28.683Z,2.93
2019-05-09T13:16:59.207Z,3.37
2019-05-09T13:19:38.151Z,4.97
2019-05-09T13:22:04.151Z,2.97
2019-05-09T13:24:30.215Z,3.83
2019-05-09T13:26:56.327Z,6.13
2019-05-09T13:29:25.885Z,6.53
2019-05-09T13:31:51.915Z,2.70
2019-05-09T13:34:18.864Z,2.47
2019-05-09T13:36:45.266Z,4.97
2019-05-09T13:39:12.647Z,3.33
2019-05-09T13:41:38.697Z,4.53
2019-05-09T13:44:07.016Z,4.50
2019-05-09T13:46:32.729Z,4.00
2019-05-09T13:49:10.787Z,5.00
2019-05-09T13:51:26.828Z,7.77
2019-05-09T13:53:53.762Z,2.93
2019-05-09T13:56:19.961Z,5.97
2019-05-09T13:58:48.562Z,6.07
2019-05-09T14:01:22.983Z,7.10
2019-05-09T14:03:49.241Z,5.77
2019-05-09T14:06:15.439Z,6.20
2019-05-09T14:08:41.749Z,4.43
2019-05-09T14:11:08.544Z,3.27
2019-05-09T14:13:34.714Z,3.07
2019-05-09T14:16:15.580Z,3.87
2019-05-09T14:18:28.810Z,5.27
2019-05-09T14:20:54.819Z,10.17
2019-05-09T14:23:21.692Z,4.70
2019-05-09T14:25:51.333Z,6.90
2019-05-09T14:28:15.669Z,6.63
2019-05-09T14:30:41.779Z,9.17
2019-05-09T14:33:08.313Z,6.07
2019-05-09T14:35:34.514Z,5.43
2019-05-09T14:38:00.578Z,2.97
2019-05-09T14:40:28.084Z,5.37
2019-05-09T14:42:57.765Z,7.57
2019-05-09T14:45:24.103Z,2.70
2019-05-09T14:47:50.153Z,3.13
2019-05-09T14:50:18.071Z,3.47
2019-05-09T14:52:44.137Z,3.80
2019-05-09T14:55:10.398Z,3.63
2019-05-09T14:57:38.408Z,4.70
2019-05-09T15:00:07.839Z,6.13
2019-05-09T15:02:33.590Z,6.90
2019-05-09T15:04:59.606Z,5.10
2019-05-09T15:07:28.272Z,4.57
2019-05-09T15:09:56.209Z,6.53
2019-05-09T15:12:21.845Z,2.55
2019-05-09T15:14:48.070Z,1.98
2019-05-09T15:17:14.209Z,3.92
2019-05-09T15:19:55.298Z,4.53
2019-05-09T15:22:08.808Z,4.58
2019-05-09T15:24:35.012Z,4.20
2019-05-09T15:27:01.040Z,3.62
2019-05-09T15:29:29.056Z,3.02
2019-05-09T15:31:55.381Z,4.22
2019-05-09T15:34:23.410Z,3.35
2019-05-09T15:36:49.502Z,2.40
2019-05-09T15:39:18.357Z,5.27
2019-05-09T15:41:44.678Z,6.33
2019-05-09T15:44:12.715Z,16.70
2019-05-09T15:46:53.074Z,3.70
2019-05-09T15:49:19.405Z,4.33
2019-05-09T15:51:47.660Z,6.10
2019-05-09T15:54:13.471Z,4.33
2019-05-09T15:56:39.516Z,6.70
2019-05-09T15:59:05.556Z,5.70
2019-05-09T16:01:31.599Z,4.83
2019-05-09T16:03:58.110Z,3.07
2019-05-09T16:06:24.169Z,4.37
2019-05-09T16:08:50.195Z,5.63
2019-05-09T16:11:17.995Z,8.07
2019-05-09T16:13:44.223Z,4.43
2019-05-09T16:16:17.561Z,7.43
2019-05-09T16:18:48.579Z,3.67
2019-05-09T16:21:27.816Z,10.30
2019-05-09T16:24:01.562Z,6.87
2019-05-09T16:26:29.508Z,6.23
2019-05-09T16:29:05.464Z,4.97
2019-05-09T16:31:39.619Z,4.50
2019-05-09T16:34:12.283Z,3.30
2019-05-09T16:36:41.171Z,4.63
2019-05-09T16:39:11.525Z,3.40
2019-05-09T16:41:39.642Z,4.00
2019-05-09T16:44:09.470Z,6.80
2019-05-09T16:46:37.792Z,53.53
2019-05-09T16:49:05.211Z,12.03
2019-05-09T16:51:31.380Z,4.17
2019-05-09T16:53:58.393Z,6.13
2019-05-09T16:56:24.763Z,5.53
2019-05-09T16:58:50.791Z,6.07
2019-05-09T17:01:18.491Z,3.57
2019-05-09T17:03:45.464Z,5.87
2019-05-09T17:06:11.623Z,7.40
2019-05-09T17:08:38.544Z,5.87
2019-05-09T17:11:07.745Z,3.70
2019-05-09T17:13:33.990Z,2.40
2019-05-09T17:16:00.085Z,4.17
2019-05-09T17:18:28.325Z,2.83
2019-05-09T17:21:03.070Z,2.13
2019-05-09T17:23:29.567Z,4.23
2019-05-09T17:25:57.904Z,8.93
2019-05-09T17:28:24.159Z,5.57
2019-05-09T17:30:50.318Z,2.43
2019-05-09T17:33:18.235Z,4.57
2019-05-09T17:35:48.422Z,3.67
2019-05-09T17:38:14.929Z,5.20
2019-05-09T17:40:48.624Z,6.93
2019-05-09T17:43:15.027Z,5.60
2019-05-09T17:45:51.213Z,6.07
2019-05-09T17:48:18.383Z,4.53
2019-05-09T17:50:53.473Z,3.60
2019-05-09T17:53:19.507Z,5.27
2019-05-09T17:55:47.750Z,8.07
2019-05-09T17:58:26.208Z,3.97
2019-05-09T18:00:41.772Z,4.80
2019-05-09T18:03:07.791Z,4.80
2019-05-09T18:05:35.962Z,4.03
2019-05-09T18:08:03.047Z,4.10
2019-05-09T18:10:29.059Z,5.87
2019-05-09T18:12:55.196Z,6.13
2019-05-09T18:15:21.295Z,3.63
2019-05-09T18:17:47.995Z,8.13
2019-05-09T18:20:14.681Z,8.73
2019-05-09T18:22:48.070Z,3.10
2019-05-09T18:25:13.311Z,4.97
2019-05-09T18:27:40.826Z,4.70
2019-05-09T18:30:06.839Z,6.87
2019-05-09T18:32:54.777Z,5.40
2019-05-09T18:35:22.736Z,5.40
2019-05-09T18:37:48.755Z,5.30
2019-05-09T18:40:14.864Z,4.40
2019-05-09T18:42:40.884Z,6.60
2019-05-09T18:45:07.939Z,3.43
2019-05-09T18:47:34.300Z,7.00
2019-05-09T18:50:00.490Z,6.97
2019-05-09T18:52:26.523Z,4.30
2019-05-09T18:54:53.522Z,9.10
2019-05-09T18:57:19.531Z,7.30
2019-05-09T18:59:45.547Z,4.27
2019-05-09T19:02:15.999Z,7.80
2019-05-09T19:04:42.051Z,8.87
2019-05-09T19:07:21.127Z,5.00
2019-05-09T19:09:37.643Z,6.87
2019-05-09T19:12:03.684Z,5.73
2019-05-09T19:14:29.801Z,6.20
2019-05-09T19:17:00.734Z,4.07
2019-05-09T19:19:45.579Z,7.50
2019-05-09T19:22:22.166Z,4.40
2019-05-09T19:24:39.974Z,4.70
2019-05-09T19:27:06.003Z,6.23
2019-05-09T19:29:32.057Z,3.57
2019-05-09T19:31:58.359Z,5.27
2019-05-09T19:34:24.384Z,5.90
2019-05-09T19:36:50.742Z,5.37
2019-05-09T19:39:16.759Z,4.30
2019-05-09T19:41:42.777Z,10.03
2019-05-09T19:44:08.811Z,4.80
2019-05-09T19:46:34.884Z,4.23
2019-05-09T19:49:00.959Z,8.10
2019-05-09T19:51:27.059Z,10.57
2019-05-09T19:53:53.188Z,4.80
2019-05-09T19:56:19.210Z,3.10
2019-05-09T19:58:45.670Z,5.27
2019-05-09T20:01:11.787Z,5.63
2019-05-09T20:03:37.805Z,5.87
2019-05-09T20:06:03.846Z,5.50
2019-05-09T20:08:29.869Z,6.87
2019-05-09T20:11:10.104Z,6.30
2019-05-09T20:13:38.360Z,4.13
2019-05-09T20:16:04.395Z,18.87
2019-05-09T20:18:30.703Z,20.03
2019-05-09T20:20:56.726Z,8.67
2019-05-09T20:23:22.723Z,9.17
2019-05-09T20:25:49.104Z,9.83
2019-05-09T20:28:21.251Z,6.20
2019-05-09T20:30:47.273Z,5.93
2019-05-09T20:33:13.751Z,7.20
2019-05-09T20:35:39.826Z,5.23
2019-05-09T20:38:05.836Z,11.20
2019-05-09T20:40:32.067Z,6.43
2019-05-09T20:42:58.082Z,6.13
2019-05-09T20:45:24.386Z,6.67
2019-05-09T20:47:50.518Z,5.27
2019-05-09T20:50:16.589Z,6.03
2019-05-09T20:52:42.931Z,5.47
2019-05-09T20:55:08.962Z,4.33
2019-05-09T20:57:42.672Z,4.70
2019-05-09T21:00:08.771Z,5.37
2019-05-09T21:02:40.668Z,9.23
2019-05-09T21:05:12.259Z,5.23
2019-05-09T21:07:38.876Z,7.30
2019-05-09T21:10:20.164Z,5.77
2019-05-09T21:12:54.724Z,9.13
2019-05-09T21:15:24.926Z,5.47
2019-05-09T21:17:57.369Z,6.10
2019-05-09T21:20:23.388Z,5.90
2019-05-09T21:22:58.336Z,6.73
2019-05-09T21:28:23.413Z,6.00
2019-05-09T21:31:00.452Z,6.27
2019-05-09T21:33:46.244Z,4.90
2019-05-09T21:36:16.212Z,4.80
2019-05-09T21:38:42.208Z,5.67
2019-05-09T21:41:08.297Z,5.60
2019-05-09T21:43:42.870Z,4.70
2019-05-09T21:46:13.995Z,8.50
2019-05-09T21:48:42.907Z,5.63
2019-05-09T21:51:11.992Z,6.63
2019-05-09T21:53:40.736Z,5.47
2019-05-09T21:56:11.137Z,6.83
2019-05-09T21:58:37.175Z,6.40
2019-05-09T22:01:03.266Z,6.23
2019-05-09T22:03:31.470Z,6.87
2019-05-09T22:05:57.539Z,9.20
2019-05-09T22:08:23.563Z,5.47
2019-05-09T22:10:49.627Z,6.13
2019-05-09T22:13:15.955Z,4.90
2019-05-09T22:15:41.984Z,6.87
2019-05-09T22:18:08.031Z,8.53
2019-05-09T22:20:34.083Z,9.03
2019-05-09T22:23:00.165Z,11.87
2019-05-09T22:25:26.313Z,10.80
2019-05-09T22:27:52.424Z,9.40
2019-05-09T22:30:18.455Z,8.00
2019-05-09T22:32:48.357Z,7.73
2019-05-09T22:35:14.473Z,6.40
2019-05-09T22:37:40.491Z,8.50
2019-05-09T22:40:06.536Z,6.20
2019-05-09T22:42:32.551Z,7.63
2019-05-09T22:44:58.578Z,9.67
2019-05-09T22:47:24.631Z,9.17
2019-05-09T22:49:52.745Z,6.23
2019-05-09T22:52:18.935Z,6.20
2019-05-09T22:54:45.003Z,8.13
2019-05-09T22:57:11.005Z,7.13
2019-05-09T22:59:37.049Z,8.27
2019-05-09T23:02:06.691Z,6.07
2019-05-09T23:04:31.076Z,4.73
2019-05-09T23:06:57.357Z,7.37
2019-05-09T23:09:23.388Z,6.80
2019-05-09T23:11:49.735Z,10.23
2019-05-09T23:14:16.446Z,7.73
2019-05-09T23:16:42.475Z,9.43
2019-05-09T23:19:08.491Z,10.20
2019-05-09T23:21:34.623Z,7.20
2019-05-09T23:24:02.579Z,11.00
2019-05-09T23:26:28.580Z,7.20
2019-05-09T23:28:54.633Z,6.27
2019-05-09T23:31:22.650Z,6.50
2019-05-09T23:33:48.693Z,12.97
2019-05-09T23:36:14.710Z,7.03
2019-05-09T23:38:59.647Z,7.20
2019-05-09T23:41:25.673Z,9.10
2019-05-09T23:43:51.707Z,8.50
2019-05-09T23:46:18.111Z,8.17
2019-05-09T23:48:44.116Z,9.20
2019-05-09T23:51:10.184Z,19.13
2019-05-09T23:53:47.119Z,9.57
2019-05-09T23:56:22.987Z,6.83
2019-05-09T23:59:08.767Z,8.30
